WetterOnline ( https://www.wetteronline.de )

Wetter aktuell St. Peter

Aktuelles Wetter: Freiburg/Flugplatz (236m)

6-stündlich | Neueste Meldungen
Ortszeit Temperatur Wetter
Mi, 28.10. 13:00 14.9° C bewölkt
Mi, 28.10. 7:00 11.8° C bedeckt
Mi, 28.10. 1:00 12.8° C bedeckt
Di, 27.10. 19:00 8.2° C leicht bewölkt
Di, 27.10. 13:00 10.9° C bedeckt
Di, 27.10. 7:00 9.0° C bewölkt
Di, 27.10. 1:00 8.7° C bedeckt
Mo, 26.10. 19:00 9.1° C bewölkt
Ortszeit Temperatur Wetter
Mi, 28.10. 18:30 13.9° C wolkig
Mi, 28.10. 18:20 13.9° C leichter Regen
Mi, 28.10. 18:10 13.8° C wolkig
Mi, 28.10. 18:00 14.2° C bewölkt
Mi, 28.10. 17:50 14.2° C bewölkt
Mi, 28.10. 17:40 14.2° C bewölkt
Mi, 28.10. 17:30 14.2° C bewölkt
Mi, 28.10. 17:00 14.6° C bedeckt
Mi, 28.10. 14:00 14.4° C wolkig
Ortszeit Relative Feuchte Sichtweite
Mi, 28.10. 13:00 62% 55 km
Mi, 28.10. 7:00 88% 70 km
Mi, 28.10. 1:00 60% 70 km
Di, 27.10. 19:00 74% 70 km
Di, 27.10. 13:00 70% 60 km
Di, 27.10. 7:00 77% 70 km
Di, 27.10. 1:00 79% 70 km
Mo, 26.10. 19:00 78% 70 km
Ortszeit Relative Feuchte Sichtweite
Mi, 28.10. 18:30 66% 70 km
Mi, 28.10. 18:20 66% -
Mi, 28.10. 18:10 67% -
Mi, 28.10. 18:00 64% 70 km
Mi, 28.10. 17:50 64% -
Mi, 28.10. 17:40 64% -
Mi, 28.10. 17:30 64% 70 km
Mi, 28.10. 17:00 59% 70 km
Mi, 28.10. 14:00 65% 60 km
Ortszeit Niederschlagsmenge Niederschlagsart
Mi, 28.10. 13:00 0.1 l/m2 in 6 Std. Regen
Mi, 28.10. 7:00 0.7 l/m2 in 12 Std. Regen
Mi, 28.10. 1:00 0.0 l/m2 in 6 Std. -
Di, 27.10. 19:00 0.1 l/m2 in 12 Std. -
Di, 27.10. 13:00 0.1 l/m2 in 6 Std. Regen
Di, 27.10. 7:00 0.1 l/m2 in 12 Std. Regen
Di, 27.10. 1:00 0.1 l/m2 in 6 Std. Regen
Mo, 26.10. 19:00 5 l/m2 in 12 Std. Regen
Ortszeit Niederschlagsmenge Niederschlagsart
Mi, 28.10. 18:30 0.1 l/m2 in 1 Std. Schneeregen
Mi, 28.10. 18:20 keine Meldung -
Mi, 28.10. 18:10 keine Meldung -
Mi, 28.10. 18:00 0.0 l/m2 in 1 Std. -
Mi, 28.10. 17:50 keine Meldung -
Mi, 28.10. 17:40 keine Meldung -
Mi, 28.10. 17:30 0.0 l/m2 in 1 Std. -
Mi, 28.10. 17:00 0.0 l/m2 in 1 Std. -
Mi, 28.10. 14:00 keine Meldung -
Ortszeit Stärke Spitze Richtung
km/h Bft. km/h Grad Sektor
Mi, 28.10. 13:00 17 3 50 220° SW
Mi, 28.10. 7:00 7 2 36 200° S
Mi, 28.10. 1:00 14 3 29 210° SW
Di, 27.10. 19:00 13 3 31 170° S
Di, 27.10. 13:00 14 3 40 220° SW
Di, 27.10. 7:00 20 4 31 200° S
Di, 27.10. 1:00 11 2 18 190° S
Mo, 26.10. 19:00 11 2 29 190° S
Ortszeit Stärke Spitze Richtung
km/h Bft. km/h Grad Sektor
Mi, 28.10. 18:30 18 3 40 210° SW
Mi, 28.10. 18:20 18 3 - 210° SW
Mi, 28.10. 18:10 20 4 - 210° SW
Mi, 28.10. 18:00 25 4 36 210° SW
Mi, 28.10. 17:50 25 4 - 210° SW
Mi, 28.10. 17:40 22 4 - 200° S
Mi, 28.10. 17:30 20 4 37 210° SW
Mi, 28.10. 17:00 20 4 33 230° SW
Mi, 28.10. 14:00 22 4 43 230° SW
Ortszeit Untergrenze Bedeckung Gattung
total tief tief mittel hoch
Mi, 28.10. 13:00 1800 m 7/8 7/8 - - -
Mi, 28.10. 7:00 600 m 8/8 8/8 - - -
Mi, 28.10. 1:00 990 m 8/8 8/8 - - -
Di, 27.10. 19:00 4200 m 3/8 3/8 - - -
Di, 27.10. 13:00 810 m 8/8 8/8 - - -
Di, 27.10. 7:00 2100 m 7/8 7/8 - - -
Di, 27.10. 1:00 5100 m 8/8 8/8 - - -
Mo, 26.10. 19:00 1500 m 8/8 5/8 - - -
Ortszeit Bedeckungsgrad in Achtel und Wolkenuntergrenze
Mi, 28.10. 18:30 3(2700m) 8(3900m)
Mi, 28.10. 18:20 3(2700m) 8(3900m)
Mi, 28.10. 18:10 1(2100m) 1(2700m) 8(3900m)
Mi, 28.10. 18:00 3(1500m) 6(2700m) 8(3900m)
Mi, 28.10. 17:50 3(1500m) 6(2700m) 8(3900m)
Mi, 28.10. 17:40 6(1500m) 7(2100m) 8(4200m)
Mi, 28.10. 17:30 8(1500m) 7(2100m) 8(3900m)
Mi, 28.10. 17:00 8(1500m)
Mi, 28.10. 14:00 2(1050m) 8(5400m) 8(6900m)
Ortszeit Luftdruck NN (hPa) Tendenz (hPa in 3 Std.)
Mi, 28.10. 13:00 1016 + 1,2
Mi, 28.10. 7:00 1013 + 1,0
Mi, 28.10. 1:00 1012 0,0
Di, 27.10. 19:00 1013 - 0,2
Di, 27.10. 13:00 1014 + 0,8
Di, 27.10. 7:00 1012 + 1,6
Di, 27.10. 1:00 1011 - 0,1
Mo, 26.10. 19:00 1010 + 1,0
Ortszeit Luftdruck NN (hPa) Tendenz (hPa in 3 Std.)
Mi, 28.10. 18:30 1016 + 0,6
Mi, 28.10. 18:20 1016 keine Meldung
Mi, 28.10. 18:10 1016 keine Meldung
Mi, 28.10. 18:00 1016 + 0,3
Mi, 28.10. 17:50 1016 keine Meldung
Mi, 28.10. 17:40 1016 keine Meldung
Mi, 28.10. 17:30 1016 + 0,4
Mi, 28.10. 17:00 1016 + 0,2
Mi, 28.10. 14:00 1016 + 0,3
Ortszeit Schneehöhe (cm)
Mi, 28.10. 13:00 0
Mi, 28.10. 7:00 0
Mi, 28.10. 1:00 0
Di, 27.10. 19:00 0
Di, 27.10. 13:00 0
Di, 27.10. 7:00 0
Di, 27.10. 1:00 0
Mo, 26.10. 19:00 0
Ortszeit Schneehöhe (cm)
Mi, 28.10. 18:30 0
Mi, 28.10. 18:20 0
Mi, 28.10. 18:10 0
Mi, 28.10. 18:00 0
Mi, 28.10. 17:50 0
Mi, 28.10. 17:40 0
Mi, 28.10. 17:30 0
Mi, 28.10. 17:00 0
Mi, 28.10. 14:00 -
Link zu dieser Seite / Seite empfehlen

Das Wetter in ...